sensor_id;sensor_type;location;lat;lon;timestamp;P1;durP1;ratioP1;P2;durP2;ratioP2
69034;SDS011;56091;55.756;37.412;2023-02-01T00:02:09;23.35;;;8.90;;
69034;SDS011;56091;55.756;37.412;2023-02-01T00:07:09;25.50;;;8.88;;
69034;SDS011;56091;55.756;37.412;2023-02-01T00:12:10;24.03;;;8.30;;
69034;SDS011;56091;55.756;37.412;2023-02-01T00:17:12;24.35;;;8.70;;
69034;SDS011;56091;55.756;37.412;2023-02-01T00:22:12;23.77;;;8.30;;
69034;SDS011;56091;55.756;37.412;2023-02-01T00:27:13;23.17;;;8.47;;
69034;SDS011;56091;55.756;37.412;2023-02-01T00:32:17;26.65;;;9.13;;
69034;SDS011;56091;55.756;37.412;2023-02-01T00:37:18;23.50;;;8.00;;
69034;SDS011;56091;55.756;37.412;2023-02-01T00:42:19;23.00;;;7.97;;
69034;SDS011;56091;55.756;37.412;2023-02-01T00:47:20;24.33;;;8.33;;
69034;SDS011;56091;55.756;37.412;2023-02-01T00:52:20;23.17;;;8.00;;
69034;SDS011;56091;55.756;37.412;2023-02-01T00:57:21;24.08;;;8.07;;
69034;SDS011;56091;55.756;37.412;2023-02-01T01:02:22;20.83;;;7.90;;
69034;SDS011;56091;55.756;37.412;2023-02-01T01:07:23;23.40;;;8.00;;
69034;SDS011;56091;55.756;37.412;2023-02-01T01:12:23;17.48;;;6.80;;
69034;SDS011;56091;55.756;37.412;2023-02-01T01:17:24;22.40;;;7.53;;
69034;SDS011;56091;55.756;37.412;2023-02-01T01:22:25;22.92;;;8.15;;
69034;SDS011;56091;55.756;37.412;2023-02-01T01:27:26;24.88;;;7.43;;
69034;SDS011;56091;55.756;37.412;2023-02-01T01:32:26;19.23;;;7.50;;
69034;SDS011;56091;55.756;37.412;2023-02-01T01:37:27;22.20;;;7.75;;
69034;SDS011;56091;55.756;37.412;2023-02-01T01:42:28;19.87;;;7.50;;
69034;SDS011;56091;55.756;37.412;2023-02-01T01:47:44;22.77;;;8.03;;
69034;SDS011;56091;55.756;37.412;2023-02-01T01:52:49;19.38;;;7.75;;
69034;SDS011;56091;55.756;37.412;2023-02-01T01:57:57;16.53;;;6.70;;
69034;SDS011;56091;55.756;37.412;2023-02-01T02:03:20;22.25;;;7.78;;
69034;SDS011;56091;55.756;37.412;2023-02-01T02:08:24;21.80;;;7.40;;
69034;SDS011;56091;55.756;37.412;2023-02-01T02:18:51;20.37;;;7.73;;
69034;SDS011;56091;55.756;37.412;2023-02-01T02:40:45;18.63;;;7.27;;
69034;SDS011;56091;55.756;37.412;2023-02-01T02:45:55;20.58;;;7.25;;
69034;SDS011;56091;55.756;37.412;2023-02-01T02:51:52;23.63;;;8.30;;
69034;SDS011;56091;55.756;37.412;2023-02-01T03:02:53;22.73;;;7.97;;
69034;SDS011;56091;55.756;37.412;2023-02-01T03:08:15;19.73;;;8.10;;
69034;SDS011;56091;55.756;37.412;2023-02-01T03:23:53;21.70;;;8.07;;
69034;SDS011;56091;55.756;37.412;2023-02-01T03:29:01;18.55;;;7.32;;
69034;SDS011;56091;55.756;37.412;2023-02-01T03:34:10;23.23;;;7.77;;
69034;SDS011;56091;55.756;37.412;2023-02-01T03:39:34;20.95;;;7.55;;
69034;SDS011;56091;55.756;37.412;2023-02-01T03:50:04;21.55;;;8.15;;
69034;SDS011;56091;55.756;37.412;2023-02-01T03:55:09;23.07;;;8.67;;
69034;SDS011;56091;55.756;37.412;2023-02-01T04:00:17;23.55;;;8.15;;
69034;SDS011;56091;55.756;37.412;2023-02-01T04:05:24;24.00;;;7.90;;
69034;SDS011;56091;55.756;37.412;2023-02-01T04:10:37;26.05;;;9.32;;
69034;SDS011;56091;55.756;37.412;2023-02-01T04:15:38;26.30;;;9.03;;
69034;SDS011;56091;55.756;37.412;2023-02-01T04:20:40;22.08;;;8.70;;
69034;SDS011;56091;55.756;37.412;2023-02-01T04:25:41;25.47;;;9.00;;
69034;SDS011;56091;55.756;37.412;2023-02-01T04:30:41;25.45;;;8.68;;
69034;SDS011;56091;55.756;37.412;2023-02-01T04:35:45;27.70;;;8.87;;
69034;SDS011;56091;55.756;37.412;2023-02-01T04:40:48;23.65;;;7.93;;
69034;SDS011;56091;55.756;37.412;2023-02-01T04:45:49;26.10;;;8.63;;
69034;SDS011;56091;55.756;37.412;2023-02-01T04:50:51;24.85;;;8.43;;
69034;SDS011;56091;55.756;37.412;2023-02-01T04:55:51;24.02;;;8.75;;
69034;SDS011;56091;55.756;37.412;2023-02-01T05:00:52;24.60;;;9.27;;
69034;SDS011;56091;55.756;37.412;2023-02-01T05:05:53;23.85;;;8.43;;
69034;SDS011;56091;55.756;37.412;2023-02-01T05:10:54;33.73;;;10.23;;
69034;SDS011;56091;55.756;37.412;2023-02-01T05:15:55;26.35;;;9.00;;
69034;SDS011;56091;55.756;37.412;2023-02-01T05:20:55;26.88;;;8.82;;
69034;SDS011;56091;55.756;37.412;2023-02-01T05:26:00;26.77;;;9.40;;
69034;SDS011;56091;55.756;37.412;2023-02-01T05:31:01;26.38;;;9.68;;
69034;SDS011;56091;55.756;37.412;2023-02-01T05:36:10;27.67;;;9.03;;
69034;SDS011;56091;55.756;37.412;2023-02-01T05:41:11;26.95;;;9.23;;
69034;SDS011;56091;55.756;37.412;2023-02-01T05:46:12;34.35;;;10.70;;
69034;SDS011;56091;55.756;37.412;2023-02-01T05:51:13;29.17;;;9.83;;
69034;SDS011;56091;55.756;37.412;2023-02-01T05:56:14;33.63;;;10.35;;
69034;SDS011;56091;55.756;37.412;2023-02-01T06:01:15;36.03;;;11.40;;
69034;SDS011;56091;55.756;37.412;2023-02-01T06:06:16;34.05;;;10.32;;
69034;SDS011;56091;55.756;37.412;2023-02-01T06:11:17;27.05;;;10.10;;
69034;SDS011;56091;55.756;37.412;2023-02-01T06:16:17;31.08;;;10.07;;
69034;SDS011;56091;55.756;37.412;2023-02-01T06:21:18;33.95;;;10.40;;
69034;SDS011;56091;55.756;37.412;2023-02-01T06:26:24;34.97;;;10.90;;
69034;SDS011;56091;55.756;37.412;2023-02-01T06:31:25;33.53;;;10.00;;
69034;SDS011;56091;55.756;37.412;2023-02-01T06:36:26;33.93;;;10.80;;
69034;SDS011;56091;55.756;37.412;2023-02-01T06:41:28;28.17;;;9.85;;
69034;SDS011;56091;55.756;37.412;2023-02-01T06:46:28;36.07;;;10.37;;
69034;SDS011;56091;55.756;37.412;2023-02-01T06:51:29;32.08;;;10.70;;
69034;SDS011;56091;55.756;37.412;2023-02-01T06:56:30;30.47;;;10.13;;
69034;SDS011;56091;55.756;37.412;2023-02-01T07:01:31;33.58;;;10.25;;
69034;SDS011;56091;55.756;37.412;2023-02-01T07:06:32;31.30;;;10.40;;
69034;SDS011;56091;55.756;37.412;2023-02-01T07:11:33;33.83;;;10.67;;
69034;SDS011;56091;55.756;37.412;2023-02-01T07:16:34;33.95;;;11.27;;
69034;SDS011;56091;55.756;37.412;2023-02-01T07:21:35;36.83;;;10.13;;
69034;SDS011;56091;55.756;37.412;2023-02-01T07:26:36;29.73;;;10.13;;
69034;SDS011;56091;55.756;37.412;2023-02-01T07:31:37;28.83;;;9.87;;
69034;SDS011;56091;55.756;37.412;2023-02-01T07:36:37;26.90;;;10.18;;
69034;SDS011;56091;55.756;37.412;2023-02-01T07:41:40;29.13;;;9.93;;
69034;SDS011;56091;55.756;37.412;2023-02-01T07:46:41;30.85;;;10.30;;
69034;SDS011;56091;55.756;37.412;2023-02-01T07:51:43;29.05;;;9.90;;
69034;SDS011;56091;55.756;37.412;2023-02-01T07:56:44;26.98;;;9.52;;
69034;SDS011;56091;55.756;37.412;2023-02-01T08:01:45;27.42;;;9.20;;
69034;SDS011;56091;55.756;37.412;2023-02-01T08:06:45;29.20;;;9.47;;
69034;SDS011;56091;55.756;37.412;2023-02-01T08:11:49;33.80;;;11.52;;
69034;SDS011;56091;55.756;37.412;2023-02-01T08:16:49;27.37;;;10.00;;
69034;SDS011;56091;55.756;37.412;2023-02-01T08:21:50;26.07;;;8.70;;
69034;SDS011;56091;55.756;37.412;2023-02-01T08:26:51;27.55;;;9.85;;
69034;SDS011;56091;55.756;37.412;2023-02-01T08:31:51;31.77;;;10.00;;
69034;SDS011;56091;55.756;37.412;2023-02-01T08:36:53;32.47;;;10.00;;
69034;SDS011;56091;55.756;37.412;2023-02-01T08:42:03;29.47;;;9.77;;
69034;SDS011;56091;55.756;37.412;2023-02-01T08:47:22;25.90;;;9.52;;
69034;SDS011;56091;55.756;37.412;2023-02-01T08:52:23;27.87;;;9.43;;
69034;SDS011;56091;55.756;37.412;2023-02-01T08:57:24;27.80;;;10.18;;
69034;SDS011;56091;55.756;37.412;2023-02-01T09:02:25;27.65;;;9.27;;
69034;SDS011;56091;55.756;37.412;2023-02-01T09:07:26;28.98;;;10.07;;
69034;SDS011;56091;55.756;37.412;2023-02-01T09:12:30;28.30;;;10.05;;
69034;SDS011;56091;55.756;37.412;2023-02-01T09:17:33;36.80;;;10.77;;
69034;SDS011;56091;55.756;37.412;2023-02-01T09:22:34;28.10;;;10.07;;
69034;SDS011;56091;55.756;37.412;2023-02-01T09:27:35;30.90;;;10.43;;
69034;SDS011;56091;55.756;37.412;2023-02-01T09:32:36;30.08;;;10.38;;
69034;SDS011;56091;55.756;37.412;2023-02-01T09:37:36;26.57;;;9.83;;
69034;SDS011;56091;55.756;37.412;2023-02-01T09:47:45;33.80;;;11.27;;
69034;SDS011;56091;55.756;37.412;2023-02-01T09:58:07;32.43;;;11.57;;
69034;SDS011;56091;55.756;37.412;2023-02-01T10:03:14;26.92;;;10.23;;
69034;SDS011;56091;55.756;37.412;2023-02-01T10:08:19;32.70;;;10.67;;
69034;SDS011;56091;55.756;37.412;2023-02-01T10:29:37;25.77;;;10.27;;
69034;SDS011;56091;55.756;37.412;2023-02-01T10:34:41;27.50;;;9.75;;
69034;SDS011;56091;55.756;37.412;2023-02-01T10:39:47;30.70;;;10.77;;
69034;SDS011;56091;55.756;37.412;2023-02-01T10:44:49;25.80;;;9.98;;
69034;SDS011;56091;55.756;37.412;2023-02-01T11:00:27;26.73;;;10.67;;
69034;SDS011;56091;55.756;37.412;2023-02-01T11:05:28;24.90;;;10.05;;
69034;SDS011;56091;55.756;37.412;2023-02-01T11:10:44;28.97;;;12.47;;
69034;SDS011;56091;55.756;37.412;2023-02-01T11:15:46;28.13;;;11.03;;
69034;SDS011;56091;55.756;37.412;2023-02-01T11:20:54;26.73;;;10.48;;
69034;SDS011;56091;55.756;37.412;2023-02-01T11:25:57;28.40;;;10.95;;
69034;SDS011;56091;55.756;37.412;2023-02-01T11:31:03;28.38;;;10.75;;
69034;SDS011;56091;55.756;37.412;2023-02-01T11:36:08;27.55;;;10.65;;
69034;SDS011;56091;55.756;37.412;2023-02-01T11:41:21;30.80;;;10.50;;
69034;SDS011;56091;55.756;37.412;2023-02-01T11:46:30;27.15;;;10.50;;
69034;SDS011;56091;55.756;37.412;2023-02-01T11:57:07;27.95;;;10.38;;
69034;SDS011;56091;55.756;37.412;2023-02-01T12:12:47;28.70;;;11.13;;
69034;SDS011;56091;55.756;37.412;2023-02-01T12:33:22;21.45;;;9.57;;
69034;SDS011;56091;55.756;37.412;2023-02-01T12:43:53;22.77;;;9.30;;
69034;SDS011;56091;55.756;37.412;2023-02-01T12:49:00;23.92;;;8.70;;
69034;SDS011;56091;55.756;37.412;2023-02-01T12:59:44;24.13;;;9.30;;
69034;SDS011;56091;55.756;37.412;2023-02-01T13:15:51;23.85;;;9.68;;
69034;SDS011;56091;55.756;37.412;2023-02-01T13:21:02;21.98;;;9.30;;
69034;SDS011;56091;55.756;37.412;2023-02-01T13:26:07;23.33;;;9.68;;
69034;SDS011;56091;55.756;37.412;2023-02-01T13:41:31;19.88;;;7.53;;
69034;SDS011;56091;55.756;37.412;2023-02-01T13:46:43;22.45;;;8.52;;
69034;SDS011;56091;55.756;37.412;2023-02-01T13:51:46;21.70;;;8.43;;
69034;SDS011;56091;55.756;37.412;2023-02-01T13:56:52;23.52;;;8.93;;
69034;SDS011;56091;55.756;37.412;2023-02-01T14:01:53;24.13;;;8.70;;
69034;SDS011;56091;55.756;37.412;2023-02-01T14:06:54;21.92;;;8.85;;
69034;SDS011;56091;55.756;37.412;2023-02-01T14:11:57;21.77;;;7.88;;
69034;SDS011;56091;55.756;37.412;2023-02-01T14:27:21;21.13;;;7.78;;
69034;SDS011;56091;55.756;37.412;2023-02-01T14:37:32;19.80;;;8.00;;
69034;SDS011;56091;55.756;37.412;2023-02-01T14:47:42;21.35;;;7.20;;
69034;SDS011;56091;55.756;37.412;2023-02-01T14:52:44;20.67;;;7.40;;
69034;SDS011;56091;55.756;37.412;2023-02-01T14:57:46;21.92;;;7.57;;
69034;SDS011;56091;55.756;37.412;2023-02-01T15:02:51;20.87;;;7.63;;
69034;SDS011;56091;55.756;37.412;2023-02-01T15:07:54;20.10;;;8.05;;
69034;SDS011;56091;55.756;37.412;2023-02-01T15:12:55;20.53;;;7.23;;
69034;SDS011;56091;55.756;37.412;2023-02-01T15:17:57;19.77;;;7.50;;
69034;SDS011;56091;55.756;37.412;2023-02-01T15:23:04;20.80;;;7.23;;
69034;SDS011;56091;55.756;37.412;2023-02-01T15:28:16;22.20;;;7.85;;
69034;SDS011;56091;55.756;37.412;2023-02-01T15:33:18;20.67;;;7.43;;
69034;SDS011;56091;55.756;37.412;2023-02-01T15:43:31;22.80;;;7.10;;
69034;SDS011;56091;55.756;37.412;2023-02-01T15:48:36;20.77;;;7.30;;
69034;SDS011;56091;55.756;37.412;2023-02-01T15:53:49;18.60;;;7.10;;
69034;SDS011;56091;55.756;37.412;2023-02-01T15:58:55;23.55;;;8.05;;
69034;SDS011;56091;55.756;37.412;2023-02-01T16:04:12;21.17;;;8.10;;
69034;SDS011;56091;55.756;37.412;2023-02-01T16:09:20;23.40;;;8.43;;
69034;SDS011;56091;55.756;37.412;2023-02-01T16:14:27;22.00;;;7.73;;
69034;SDS011;56091;55.756;37.412;2023-02-01T16:19:28;19.08;;;7.32;;
69034;SDS011;56091;55.756;37.412;2023-02-01T16:24:29;20.73;;;8.10;;
69034;SDS011;56091;55.756;37.412;2023-02-01T16:29:32;22.90;;;8.00;;
69034;SDS011;56091;55.756;37.412;2023-02-01T16:34:33;21.08;;;7.63;;
69034;SDS011;56091;55.756;37.412;2023-02-01T16:39:36;21.38;;;7.80;;
69034;SDS011;56091;55.756;37.412;2023-02-01T16:44:36;22.02;;;7.28;;
69034;SDS011;56091;55.756;37.412;2023-02-01T16:49:37;21.50;;;7.93;;
69034;SDS011;56091;55.756;37.412;2023-02-01T16:54:41;21.80;;;7.47;;
69034;SDS011;56091;55.756;37.412;2023-02-01T16:59:42;20.83;;;7.40;;
69034;SDS011;56091;55.756;37.412;2023-02-01T17:04:44;21.17;;;7.35;;
69034;SDS011;56091;55.756;37.412;2023-02-01T17:09:46;19.57;;;7.47;;
69034;SDS011;56091;55.756;37.412;2023-02-01T17:14:47;20.30;;;7.22;;
69034;SDS011;56091;55.756;37.412;2023-02-01T17:19:49;22.90;;;7.27;;
69034;SDS011;56091;55.756;37.412;2023-02-01T17:24:53;18.88;;;6.93;;
69034;SDS011;56091;55.756;37.412;2023-02-01T17:29:54;20.27;;;7.57;;
69034;SDS011;56091;55.756;37.412;2023-02-01T17:34:56;21.43;;;7.17;;
69034;SDS011;56091;55.756;37.412;2023-02-01T17:39:57;20.90;;;7.38;;
69034;SDS011;56091;55.756;37.412;2023-02-01T17:44:59;20.83;;;7.97;;
69034;SDS011;56091;55.756;37.412;2023-02-01T17:50:11;18.27;;;7.38;;
69034;SDS011;56091;55.756;37.412;2023-02-01T17:55:18;16.80;;;6.03;;
69034;SDS011;56091;55.756;37.412;2023-02-01T18:00:22;18.67;;;7.35;;
69034;SDS011;56091;55.756;37.412;2023-02-01T18:05:25;18.50;;;6.43;;
69034;SDS011;56091;55.756;37.412;2023-02-01T18:10:32;18.83;;;6.93;;
69034;SDS011;56091;55.756;37.412;2023-02-01T18:15:33;19.90;;;7.37;;
69034;SDS011;56091;55.756;37.412;2023-02-01T18:20:41;18.92;;;7.18;;
69034;SDS011;56091;55.756;37.412;2023-02-01T18:25:43;19.20;;;7.07;;
69034;SDS011;56091;55.756;37.412;2023-02-01T18:30:47;17.70;;;7.10;;
69034;SDS011;56091;55.756;37.412;2023-02-01T18:35:50;16.17;;;6.67;;
69034;SDS011;56091;55.756;37.412;2023-02-01T18:40:52;17.30;;;7.15;;
69034;SDS011;56091;55.756;37.412;2023-02-01T18:45:57;16.93;;;6.87;;
69034;SDS011;56091;55.756;37.412;2023-02-01T18:50:58;17.60;;;7.10;;
69034;SDS011;56091;55.756;37.412;2023-02-01T18:55:59;21.60;;;7.43;;
69034;SDS011;56091;55.756;37.412;2023-02-01T19:01:05;18.35;;;7.22;;
69034;SDS011;56091;55.756;37.412;2023-02-01T19:06:08;18.47;;;6.80;;
69034;SDS011;56091;55.756;37.412;2023-02-01T19:11:09;17.83;;;7.50;;
69034;SDS011;56091;55.756;37.412;2023-02-01T19:16:11;18.33;;;7.20;;
69034;SDS011;56091;55.756;37.412;2023-02-01T19:21:12;22.30;;;7.60;;
69034;SDS011;56091;55.756;37.412;2023-02-01T19:26:14;22.98;;;7.88;;
69034;SDS011;56091;55.756;37.412;2023-02-01T19:31:16;20.08;;;7.25;;
69034;SDS011;56091;55.756;37.412;2023-02-01T19:36:17;20.77;;;7.80;;
69034;SDS011;56091;55.756;37.412;2023-02-01T19:41:18;22.33;;;7.90;;
69034;SDS011;56091;55.756;37.412;2023-02-01T19:46:19;21.10;;;7.80;;
69034;SDS011;56091;55.756;37.412;2023-02-01T19:51:20;21.10;;;7.83;;
69034;SDS011;56091;55.756;37.412;2023-02-01T19:56:21;22.00;;;7.97;;
69034;SDS011;56091;55.756;37.412;2023-02-01T20:01:25;21.00;;;7.63;;
69034;SDS011;56091;55.756;37.412;2023-02-01T20:06:26;20.95;;;7.80;;
69034;SDS011;56091;55.756;37.412;2023-02-01T20:11:26;22.87;;;8.50;;
69034;SDS011;56091;55.756;37.412;2023-02-01T20:16:27;21.43;;;8.57;;
69034;SDS011;56091;55.756;37.412;2023-02-01T20:21:28;23.40;;;8.70;;
69034;SDS011;56091;55.756;37.412;2023-02-01T20:26:29;24.73;;;8.50;;
69034;SDS011;56091;55.756;37.412;2023-02-01T20:31:30;26.77;;;10.20;;
69034;SDS011;56091;55.756;37.412;2023-02-01T20:36:31;23.63;;;9.63;;
69034;SDS011;56091;55.756;37.412;2023-02-01T20:41:32;28.50;;;10.23;;
69034;SDS011;56091;55.756;37.412;2023-02-01T20:46:33;29.20;;;10.13;;
69034;SDS011;56091;55.756;37.412;2023-02-01T20:51:33;28.53;;;9.03;;
69034;SDS011;56091;55.756;37.412;2023-02-01T20:56:38;27.00;;;10.15;;
69034;SDS011;56091;55.756;37.412;2023-02-01T21:01:39;29.13;;;10.80;;
69034;SDS011;56091;55.756;37.412;2023-02-01T21:06:50;25.45;;;10.05;;
69034;SDS011;56091;55.756;37.412;2023-02-01T21:11:51;29.10;;;10.33;;
69034;SDS011;56091;55.756;37.412;2023-02-01T21:16:53;26.23;;;10.50;;
69034;SDS011;56091;55.756;37.412;2023-02-01T21:21:54;31.83;;;10.63;;
69034;SDS011;56091;55.756;37.412;2023-02-01T21:26:55;29.97;;;10.20;;
69034;SDS011;56091;55.756;37.412;2023-02-01T21:31:55;27.70;;;10.38;;
69034;SDS011;56091;55.756;37.412;2023-02-01T21:36:56;30.57;;;11.03;;
69034;SDS011;56091;55.756;37.412;2023-02-01T21:41:57;30.23;;;10.68;;
69034;SDS011;56091;55.756;37.412;2023-02-01T21:47:14;31.02;;;11.60;;
69034;SDS011;56091;55.756;37.412;2023-02-01T21:52:16;33.10;;;11.23;;
69034;SDS011;56091;55.756;37.412;2023-02-01T21:57:17;30.08;;;10.63;;
69034;SDS011;56091;55.756;37.412;2023-02-01T22:02:18;28.37;;;11.10;;
69034;SDS011;56091;55.756;37.412;2023-02-01T22:07:24;30.98;;;11.00;;
69034;SDS011;56091;55.756;37.412;2023-02-01T22:12:25;26.83;;;10.93;;
69034;SDS011;56091;55.756;37.412;2023-02-01T22:17:27;29.75;;;11.05;;
69034;SDS011;56091;55.756;37.412;2023-02-01T22:22:28;28.00;;;10.40;;
69034;SDS011;56091;55.756;37.412;2023-02-01T22:27:29;29.40;;;10.30;;
69034;SDS011;56091;55.756;37.412;2023-02-01T22:32:32;28.20;;;10.77;;
69034;SDS011;56091;55.756;37.412;2023-02-01T22:37:33;25.83;;;10.03;;
69034;SDS011;56091;55.756;37.412;2023-02-01T22:42:33;29.38;;;10.38;;
69034;SDS011;56091;55.756;37.412;2023-02-01T22:47:34;26.47;;;10.00;;
69034;SDS011;56091;55.756;37.412;2023-02-01T22:52:35;28.20;;;10.30;;
69034;SDS011;56091;55.756;37.412;2023-02-01T22:57:35;24.27;;;9.88;;
69034;SDS011;56091;55.756;37.412;2023-02-01T23:02:36;27.33;;;9.87;;
69034;SDS011;56091;55.756;37.412;2023-02-01T23:07:37;28.00;;;10.38;;
69034;SDS011;56091;55.756;37.412;2023-02-01T23:12:38;27.80;;;10.60;;
69034;SDS011;56091;55.756;37.412;2023-02-01T23:17:41;30.10;;;10.70;;
69034;SDS011;56091;55.756;37.412;2023-02-01T23:22:45;25.70;;;9.80;;
69034;SDS011;56091;55.756;37.412;2023-02-01T23:27:47;25.80;;;9.88;;
69034;SDS011;56091;55.756;37.412;2023-02-01T23:32:49;27.70;;;9.48;;
69034;SDS011;56091;55.756;37.412;2023-02-01T23:37:49;24.48;;;9.98;;
69034;SDS011;56091;55.756;37.412;2023-02-01T23:42:50;26.95;;;10.07;;
69034;SDS011;56091;55.756;37.412;2023-02-01T23:48:09;25.53;;;10.37;;
69034;SDS011;56091;55.756;37.412;2023-02-01T23:53:10;24.88;;;9.23;;
69034;SDS011;56091;55.756;37.412;2023-02-01T23:58:11;29.40;;;10.77;;
